sensor_id;sensor_type;location;lat;lon;timestamp;pressure;altitude;pressure_sealevel;temperature;humidity
83512;BME280;73446;0.000;0.000;2024-03-02T00:02:06;97549.84;;;19.45;34.24
83512;BME280;73446;0.000;0.000;2024-03-02T00:04:51;97541.38;;;19.43;34.33
83512;BME280;73446;0.000;0.000;2024-03-02T00:07:35;97545.13;;;19.42;34.42
83512;BME280;73446;0.000;0.000;2024-03-02T00:10:25;97544.03;;;19.43;34.28
83512;BME280;73446;0.000;0.000;2024-03-02T00:13:13;97535.53;;;19.41;34.15
83512;BME280;73446;0.000;0.000;2024-03-02T00:15:58;97534.47;;;19.42;34.29
83512;BME280;73446;0.000;0.000;2024-03-02T00:18:42;97536.63;;;19.40;34.08
83512;BME280;73446;0.000;0.000;2024-03-02T00:21:27;97531.31;;;19.40;34.15
83512;BME280;73446;0.000;0.000;2024-03-02T00:24:32;97535.06;;;19.39;34.13
83512;BME280;73446;0.000;0.000;2024-03-02T00:27:20;97538.50;;;19.39;34.08
83512;BME280;73446;0.000;0.000;2024-03-02T00:30:36;97528.16;;;19.38;34.18
83512;BME280;73446;0.000;0.000;2024-03-02T00:33:23;97532.69;;;19.37;34.07
83512;BME280;73446;0.000;0.000;2024-03-02T00:36:08;97531.91;;;19.37;34.02
83512;BME280;73446;0.000;0.000;2024-03-02T00:38:54;97534.06;;;19.35;33.99
83512;BME280;73446;0.000;0.000;2024-03-02T00:41:41;97535.16;;;19.34;33.99
83512;BME280;73446;0.000;0.000;2024-03-02T00:44:26;97532.50;;;19.34;34.09
83512;BME280;73446;0.000;0.000;2024-03-02T00:47:10;97537.81;;;19.34;34.08
83512;BME280;73446;0.000;0.000;2024-03-02T00:49:54;97536.25;;;19.33;34.04
83512;BME280;73446;0.000;0.000;2024-03-02T00:52:40;97532.78;;;19.32;33.79
83512;BME280;73446;0.000;0.000;2024-03-02T00:55:24;97534.69;;;19.32;33.82
83512;BME280;73446;0.000;0.000;2024-03-02T00:58:10;97533.91;;;19.31;33.85
83512;BME280;73446;0.000;0.000;2024-03-02T01:00:55;97539.22;;;19.31;34.10
83512;BME280;73446;0.000;0.000;2024-03-02T01:03:39;97541.09;;;19.31;34.02
83512;BME280;73446;0.000;0.000;2024-03-02T01:06:23;97545.94;;;19.29;33.93
83512;BME280;73446;0.000;0.000;2024-03-02T01:09:07;97545.94;;;19.29;33.85
83512;BME280;73446;0.000;0.000;2024-03-02T01:11:51;97547.81;;;19.28;33.76
83512;BME280;73446;0.000;0.000;2024-03-02T01:14:35;97544.06;;;19.29;33.79
83512;BME280;73446;0.000;0.000;2024-03-02T01:17:19;97544.66;;;19.26;33.92
83512;BME280;73446;0.000;0.000;2024-03-02T01:20:04;97535.88;;;19.26;33.71
83512;BME280;73446;0.000;0.000;2024-03-02T01:22:48;97542.28;;;19.25;33.63
83512;BME280;73446;0.000;0.000;2024-03-02T01:25:32;97542.28;;;19.25;33.73
83512;BME280;73446;0.000;0.000;2024-03-02T01:28:17;97546.03;;;19.23;33.70
83512;BME280;73446;0.000;0.000;2024-03-02T01:31:00;97532.72;;;19.23;33.62
83512;BME280;73446;0.000;0.000;2024-03-02T01:33:46;97537.25;;;19.23;33.83
83512;BME280;73446;0.000;0.000;2024-03-02T01:36:30;97529.56;;;19.21;33.80
83512;BME280;73446;0.000;0.000;2024-03-02T01:39:14;97533.00;;;19.22;33.62
83512;BME280;73446;0.000;0.000;2024-03-02T01:41:58;97524.25;;;19.21;33.74
83512;BME280;73446;0.000;0.000;2024-03-02T01:44:43;97521.56;;;19.21;33.71
83512;BME280;73446;0.000;0.000;2024-03-02T01:47:27;97528.47;;;19.22;33.57
83512;BME280;73446;0.000;0.000;2024-03-02T01:50:11;97530.66;;;19.20;33.40
83512;BME280;73446;0.000;0.000;2024-03-02T01:52:56;97530.66;;;19.20;33.46
83512;BME280;73446;0.000;0.000;2024-03-02T01:55:40;97526.09;;;19.21;33.54
83512;BME280;73446;0.000;0.000;2024-03-02T01:58:24;97519.69;;;19.22;33.64
83512;BME280;73446;0.000;0.000;2024-03-02T02:01:08;97518.13;;;19.21;33.50
83512;BME280;73446;0.000;0.000;2024-03-02T02:03:54;97517.53;;;19.24;33.32
83512;BME280;73446;0.000;0.000;2024-03-02T02:06:38;97518.31;;;19.25;33.52
83512;BME280;73446;0.000;0.000;2024-03-02T02:09:22;97523.16;;;19.22;33.20
83512;BME280;73446;0.000;0.000;2024-03-02T02:12:10;97513.78;;;19.25;33.13
83512;BME280;73446;0.000;0.000;2024-03-02T02:14:53;97512.41;;;19.28;33.55
83512;BME280;73446;0.000;0.000;2024-03-02T02:17:37;97511.31;;;19.29;33.45
83512;BME280;73446;0.000;0.000;2024-03-02T02:20:22;97507.88;;;19.28;33.42
83512;BME280;73446;0.000;0.000;2024-03-02T02:23:06;97504.13;;;19.29;33.10
83512;BME280;73446;0.000;0.000;2024-03-02T02:25:51;97509.44;;;19.29;32.71
83512;BME280;73446;0.000;0.000;2024-03-02T02:28:36;97502.25;;;19.30;32.57
83512;BME280;73446;0.000;0.000;2024-03-02T02:31:20;97498.16;;;19.32;32.38
83512;BME280;73446;0.000;0.000;2024-03-02T02:34:04;97503.19;;;19.34;32.34
83512;BME280;73446;0.000;0.000;2024-03-02T02:36:49;97498.66;;;19.34;32.33
83512;BME280;73446;0.000;0.000;2024-03-02T02:39:33;97496.47;;;19.36;31.74
83512;BME280;73446;0.000;0.000;2024-03-02T02:42:17;97489.28;;;19.37;32.01
83512;BME280;73446;0.000;0.000;2024-03-02T02:45:01;97483.47;;;19.35;32.69
83512;BME280;73446;0.000;0.000;2024-03-02T02:47:45;97483.75;;;19.33;33.30
83512;BME280;73446;0.000;0.000;2024-03-02T02:50:29;97478.75;;;19.32;32.96
83512;BME280;73446;0.000;0.000;2024-03-02T02:53:13;97473.09;;;19.33;31.98
83512;BME280;73446;0.000;0.000;2024-03-02T02:55:58;97474.38;;;19.36;31.46
83512;BME280;73446;0.000;0.000;2024-03-02T02:58:42;97483.94;;;19.37;31.67
83512;BME280;73446;0.000;0.000;2024-03-02T03:01:26;97475.97;;;19.37;31.12
83512;BME280;73446;0.000;0.000;2024-03-02T03:04:10;97469.53;;;19.38;31.49
83512;BME280;73446;0.000;0.000;2024-03-02T03:06:54;97474.56;;;19.39;31.08
83512;BME280;73446;0.000;0.000;2024-03-02T03:09:38;97475.38;;;19.40;30.92
83512;BME280;73446;0.000;0.000;2024-03-02T03:12:22;97478.03;;;19.40;30.98
83512;BME280;73446;0.000;0.000;2024-03-02T03:15:07;97475.38;;;19.40;30.74
83512;BME280;73446;0.000;0.000;2024-03-02T03:17:52;97463.63;;;19.41;30.48
83512;BME280;73446;0.000;0.000;2024-03-02T03:20:36;97467.84;;;19.42;30.96
83512;BME280;73446;0.000;0.000;2024-03-02T03:23:23;97467.84;;;19.42;30.75
83512;BME280;73446;0.000;0.000;2024-03-02T03:26:09;97458.78;;;19.43;30.70
83512;BME280;73446;0.000;0.000;2024-03-02T03:28:54;97451.38;;;19.40;32.03
83512;BME280;73446;0.000;0.000;2024-03-02T03:31:38;97458.88;;;19.38;33.08
83512;BME280;73446;0.000;0.000;2024-03-02T03:34:22;97457.00;;;19.38;31.70
83512;BME280;73446;0.000;0.000;2024-03-02T03:37:06;97455.94;;;19.39;30.69
83512;BME280;73446;0.000;0.000;2024-03-02T03:39:50;97458.28;;;19.41;30.81
83512;BME280;73446;0.000;0.000;2024-03-02T03:42:38;97457.19;;;19.42;30.38
83512;BME280;73446;0.000;0.000;2024-03-02T03:45:22;97455.34;;;19.42;30.21
83512;BME280;73446;0.000;0.000;2024-03-02T03:48:08;97452.38;;;19.44;30.30
83512;BME280;73446;0.000;0.000;2024-03-02T03:50:53;97459.28;;;19.45;30.05
83512;BME280;73446;0.000;0.000;2024-03-02T03:53:37;97458.19;;;19.46;30.26
83512;BME280;73446;0.000;0.000;2024-03-02T03:56:21;97470.41;;;19.47;29.97
83512;BME280;73446;0.000;0.000;2024-03-02T03:59:05;97458.69;;;19.48;29.65
83512;BME280;73446;0.000;0.000;2024-03-02T04:01:49;97457.56;;;19.49;29.41
83512;BME280;73446;0.000;0.000;2024-03-02T04:04:33;97457.56;;;19.49;29.70
83512;BME280;73446;0.000;0.000;2024-03-02T04:07:17;97452.22;;;19.49;29.48
83512;BME280;73446;0.000;0.000;2024-03-02T04:10:02;97450.38;;;19.49;29.53
83512;BME280;73446;0.000;0.000;2024-03-02T04:12:49;97462.44;;;19.47;31.71
83512;BME280;73446;0.000;0.000;2024-03-02T04:15:33;97460.34;;;19.44;32.66
83512;BME280;73446;0.000;0.000;2024-03-02T04:18:17;97463.03;;;19.44;31.13
83512;BME280;73446;0.000;0.000;2024-03-02T04:21:01;97459.28;;;19.45;30.25
83512;BME280;73446;0.000;0.000;2024-03-02T04:23:45;97466.19;;;19.46;30.30
83512;BME280;73446;0.000;0.000;2024-03-02T04:26:29;97457.88;;;19.47;29.96
83512;BME280;73446;0.000;0.000;2024-03-02T04:29:13;97464.75;;;19.48;30.00
83512;BME280;73446;0.000;0.000;2024-03-02T04:31:57;97470.88;;;19.49;29.81
83512;BME280;73446;0.000;0.000;2024-03-02T04:34:41;97465.56;;;19.49;29.49
83512;BME280;73446;0.000;0.000;2024-03-02T04:37:25;97464.50;;;19.50;29.57
83512;BME280;73446;0.000;0.000;2024-03-02T04:40:09;97462.63;;;19.50;29.43
83512;BME280;73446;0.000;0.000;2024-03-02T04:42:54;97470.59;;;19.50;29.38
83512;BME280;73446;0.000;0.000;2024-03-02T04:45:38;97464.50;;;19.50;29.33
83512;BME280;73446;0.000;0.000;2024-03-02T04:48:22;97471.41;;;19.51;29.04
83512;BME280;73446;0.000;0.000;2024-03-02T04:51:06;97480.97;;;19.52;29.25
83512;BME280;73446;0.000;0.000;2024-03-02T04:53:50;97475.63;;;19.52;28.98
83512;BME280;73446;0.000;0.000;2024-03-02T04:56:34;97483.16;;;19.50;30.87
83512;BME280;73446;0.000;0.000;2024-03-02T04:59:28;97486.69;;;19.45;31.80
83512;BME280;73446;0.000;0.000;2024-03-02T05:02:12;97492.03;;;19.45;30.54
83512;BME280;73446;0.000;0.000;2024-03-02T05:04:57;97492.19;;;19.49;29.61
83512;BME280;73446;0.000;0.000;2024-03-02T05:07:41;97499.13;;;19.50;29.44
83512;BME280;73446;0.000;0.000;2024-03-02T05:10:29;97506.81;;;19.51;29.34
83512;BME280;73446;0.000;0.000;2024-03-02T05:13:13;97506.81;;;19.51;29.38
83512;BME280;73446;0.000;0.000;2024-03-02T05:15:58;97510.28;;;19.52;29.13
83512;BME280;73446;0.000;0.000;2024-03-02T05:18:42;97503.06;;;19.52;28.93
83512;BME280;73446;0.000;0.000;2024-03-02T05:21:26;97503.88;;;19.53;28.74
83512;BME280;73446;0.000;0.000;2024-03-02T05:24:10;97500.41;;;19.52;28.63
83512;BME280;73446;0.000;0.000;2024-03-02T05:26:55;97507.31;;;19.53;28.50
83512;BME280;73446;0.000;0.000;2024-03-02T05:29:39;97505.44;;;19.54;28.87
83512;BME280;73446;0.000;0.000;2024-03-02T05:32:23;97500.91;;;19.54;28.69
83512;BME280;73446;0.000;0.000;2024-03-02T05:35:07;97507.81;;;19.55;28.57
83512;BME280;73446;0.000;0.000;2024-03-02T05:37:52;97502.47;;;19.55;28.37
83512;BME280;73446;0.000;0.000;2024-03-02T05:40:35;97497.75;;;19.52;30.77
83512;BME280;73446;0.000;0.000;2024-03-02T05:43:19;97499.41;;;19.48;30.94
83512;BME280;73446;0.000;0.000;2024-03-02T05:46:04;97499.41;;;19.48;29.87
83512;BME280;73446;0.000;0.000;2024-03-02T05:48:48;97506.03;;;19.51;29.07
83512;BME280;73446;0.000;0.000;2024-03-02T05:51:32;97508.09;;;19.54;28.78
83512;BME280;73446;0.000;0.000;2024-03-02T05:54:15;97507.00;;;19.55;28.81
83512;BME280;73446;0.000;0.000;2024-03-02T05:56:59;97500.91;;;19.54;28.28
83512;BME280;73446;0.000;0.000;2024-03-02T06:00:00;97501.69;;;19.55;28.47
83512;BME280;73446;0.000;0.000;2024-03-02T06:02:44;97490.25;;;19.54;28.37
83512;BME280;73446;0.000;0.000;2024-03-02T06:05:29;97492.59;;;19.56;28.30
83512;BME280;73446;0.000;0.000;2024-03-02T06:08:13;97499.50;;;19.57;28.14
83512;BME280;73446;0.000;0.000;2024-03-02T06:10:57;97510.16;;;19.57;28.21
83512;BME280;73446;0.000;0.000;2024-03-02T06:13:42;97505.63;;;19.58;27.98
83512;BME280;73446;0.000;0.000;2024-03-02T06:16:26;97506.41;;;19.58;27.78
83512;BME280;73446;0.000;0.000;2024-03-02T06:19:10;97509.09;;;19.58;27.67
83512;BME280;73446;0.000;0.000;2024-03-02T06:21:54;97513.31;;;19.59;28.18
83512;BME280;73446;0.000;0.000;2024-03-02T06:24:38;97505.13;;;19.55;30.56
83512;BME280;73446;0.000;0.000;2024-03-02T06:27:22;97511.38;;;19.51;29.98
83512;BME280;73446;0.000;0.000;2024-03-02T06:30:06;97509.50;;;19.51;29.13
83512;BME280;73446;0.000;0.000;2024-03-02T06:32:50;97508.09;;;19.54;28.65
83512;BME280;73446;0.000;0.000;2024-03-02T06:35:34;97514.22;;;19.54;28.48
83512;BME280;73446;0.000;0.000;2024-03-02T06:38:19;97507.81;;;19.55;28.22
83512;BME280;73446;0.000;0.000;2024-03-02T06:41:03;97519.25;;;19.56;28.26
83512;BME280;73446;0.000;0.000;2024-03-02T06:43:47;97515.50;;;19.57;28.19
83512;BME280;73446;0.000;0.000;2024-03-02T06:46:31;97514.41;;;19.58;27.83
83512;BME280;73446;0.000;0.000;2024-03-02T06:49:15;97513.63;;;19.58;27.95
83512;BME280;73446;0.000;0.000;2024-03-02T06:52:01;97513.31;;;19.59;27.78
83512;BME280;73446;0.000;0.000;2024-03-02T06:54:46;97516.78;;;19.60;27.60
83512;BME280;73446;0.000;0.000;2024-03-02T06:57:30;97515.88;;;19.64;27.06
83512;BME280;73446;0.000;0.000;2024-03-02T07:00:15;97516.34;;;19.66;28.34
83512;BME280;73446;0.000;0.000;2024-03-02T07:02:59;97503.81;;;19.67;29.71
83512;BME280;73446;0.000;0.000;2024-03-02T07:05:43;97501.44;;;19.65;31.57
83512;BME280;73446;0.000;0.000;2024-03-02T07:08:27;97516.59;;;19.56;32.24
83512;BME280;73446;0.000;0.000;2024-03-02T07:11:11;97511.75;;;19.58;31.86
83512;BME280;73446;0.000;0.000;2024-03-02T07:13:55;97510.72;;;19.68;31.03
83512;BME280;73446;0.000;0.000;2024-03-02T07:16:39;97519.59;;;19.77;30.86
83512;BME280;73446;0.000;0.000;2024-03-02T07:19:24;97517.56;;;19.82;31.51
83512;BME280;73446;0.000;0.000;2024-03-02T07:22:08;97522.53;;;19.75;32.08
83512;BME280;73446;0.000;0.000;2024-03-02T07:24:53;97525.31;;;19.70;32.96
83512;BME280;73446;0.000;0.000;2024-03-02T07:27:38;97519.88;;;19.75;31.49
83512;BME280;73446;0.000;0.000;2024-03-02T07:30:22;97520.53;;;19.81;31.34
83512;BME280;73446;0.000;0.000;2024-03-02T07:33:06;97527.44;;;19.82;31.52
83512;BME280;73446;0.000;0.000;2024-03-02T07:35:51;97522.28;;;19.85;30.81
83512;BME280;73446;0.000;0.000;2024-03-02T07:38:35;97530.28;;;19.85;30.39
83512;BME280;73446;0.000;0.000;2024-03-02T07:41:19;97526.25;;;19.88;30.34
83512;BME280;73446;0.000;0.000;2024-03-02T07:44:03;97527.03;;;19.88;30.41
83512;BME280;73446;0.000;0.000;2024-03-02T07:46:48;97528.78;;;19.93;30.20
83512;BME280;73446;0.000;0.000;2024-03-02T07:49:36;97519.84;;;19.98;29.50
83512;BME280;73446;0.000;0.000;2024-03-02T07:52:20;97520.22;;;20.05;29.84
83512;BME280;73446;0.000;0.000;2024-03-02T07:55:04;97518.25;;;20.10;30.74
83512;BME280;73446;0.000;0.000;2024-03-02T07:57:48;97519.97;;;20.15;31.55
83512;BME280;73446;0.000;0.000;2024-03-02T08:00:33;97525.69;;;20.22;31.24
83512;BME280;73446;0.000;0.000;2024-03-02T08:03:17;97524.09;;;20.21;31.49
83512;BME280;73446;0.000;0.000;2024-03-02T08:06:01;97530.03;;;20.18;32.64
83512;BME280;73446;0.000;0.000;2024-03-02T08:08:45;97525.25;;;20.06;33.57
83512;BME280;73446;0.000;0.000;2024-03-02T08:11:29;97514.78;;;20.10;32.43
83512;BME280;73446;0.000;0.000;2024-03-02T08:14:15;97519.06;;;20.19;32.15
83512;BME280;73446;0.000;0.000;2024-03-02T08:16:59;97520.03;;;20.23;32.01
83512;BME280;73446;0.000;0.000;2024-03-02T08:19:45;97520.34;;;20.22;32.56
83512;BME280;73446;0.000;0.000;2024-03-02T08:22:30;97524.41;;;20.19;32.66
83512;BME280;73446;0.000;0.000;2024-03-02T08:25:14;97524.88;;;20.21;32.28
83512;BME280;73446;0.000;0.000;2024-03-02T08:27:58;97521.91;;;20.23;32.63
83512;BME280;73446;0.000;0.000;2024-03-02T08:30:42;97527.25;;;20.23;32.71
83512;BME280;73446;0.000;0.000;2024-03-02T08:33:26;97522.88;;;20.27;32.98
83512;BME280;73446;0.000;0.000;2024-03-02T08:36:11;97519.13;;;20.28;32.69
83512;BME280;73446;0.000;0.000;2024-03-02T08:38:55;97524.47;;;20.28;32.83
83512;BME280;73446;0.000;0.000;2024-03-02T08:41:39;97523.03;;;20.31;32.88
83512;BME280;73446;0.000;0.000;2024-03-02T08:44:23;97525.09;;;20.34;32.97
83512;BME280;73446;0.000;0.000;2024-03-02T08:47:08;97519.75;;;20.34;33.07
83512;BME280;73446;0.000;0.000;2024-03-02T08:49:52;97518.09;;;20.38;32.73
83512;BME280;73446;0.000;0.000;2024-03-02T08:52:37;97521.25;;;20.40;33.19
83512;BME280;73446;0.000;0.000;2024-03-02T08:55:21;97519.84;;;20.42;33.62
83512;BME280;73446;0.000;0.000;2024-03-02T08:58:05;97515.78;;;20.45;33.42
83512;BME280;73446;0.000;0.000;2024-03-02T09:00:49;97508.56;;;20.45;32.71
83512;BME280;73446;0.000;0.000;2024-03-02T09:03:34;97505.56;;;20.47;32.86
83512;BME280;73446;0.000;0.000;2024-03-02T09:06:18;97497.91;;;20.45;33.45
83512;BME280;73446;0.000;0.000;2024-03-02T09:09:05;97503.25;;;20.45;32.62
83512;BME280;73446;0.000;0.000;2024-03-02T09:11:49;97506.22;;;20.44;32.81
83512;BME280;73446;0.000;0.000;2024-03-02T09:14:33;97501.97;;;20.43;33.40
83512;BME280;73446;0.000;0.000;2024-03-02T09:17:19;97503.06;;;20.42;32.82
83512;BME280;73446;0.000;0.000;2024-03-02T09:20:04;97507.00;;;20.44;33.19
83512;BME280;73446;0.000;0.000;2024-03-02T09:22:49;97500.22;;;20.47;33.44
83512;BME280;73446;0.000;0.000;2024-03-02T09:25:33;97505.75;;;20.50;33.68
83512;BME280;73446;0.000;0.000;2024-03-02T09:28:17;97502.00;;;20.51;33.57
83512;BME280;73446;0.000;0.000;2024-03-02T09:31:01;97496.66;;;20.51;33.73
83512;BME280;73446;0.000;0.000;2024-03-02T09:33:45;97500.59;;;20.54;33.93
83512;BME280;73446;0.000;0.000;2024-03-02T09:36:30;97502.97;;;20.55;34.00
83512;BME280;73446;0.000;0.000;2024-03-02T09:39:14;97500.28;;;20.55;34.29
83512;BME280;73446;0.000;0.000;2024-03-02T09:42:04;97496.03;;;20.54;33.94
83512;BME280;73446;0.000;0.000;2024-03-02T09:44:48;97502.66;;;20.57;34.14
83512;BME280;73446;0.000;0.000;2024-03-02T09:47:32;97489.47;;;20.60;33.95
83512;BME280;73446;0.000;0.000;2024-03-02T09:50:17;97494.66;;;20.66;34.34
83512;BME280;73446;0.000;0.000;2024-03-02T09:53:01;97488.84;;;20.64;34.30
83512;BME280;73446;0.000;0.000;2024-03-02T09:55:46;97495.91;;;20.59;33.79
83512;BME280;73446;0.000;0.000;2024-03-02T09:58:31;97490.09;;;20.57;34.15
83512;BME280;73446;0.000;0.000;2024-03-02T10:01:15;97493.84;;;20.56;33.75
83512;BME280;73446;0.000;0.000;2024-03-02T10:04:00;97502.97;;;20.55;34.07
83512;BME280;73446;0.000;0.000;2024-03-02T10:06:44;97495.56;;;20.52;34.23
83512;BME280;73446;0.000;0.000;2024-03-02T10:09:28;97484.41;;;20.50;34.29
83512;BME280;73446;0.000;0.000;2024-03-02T10:12:18;97496.97;;;20.50;34.05
83512;BME280;73446;0.000;0.000;2024-03-02T10:15:03;97493.50;;;20.49;34.25
83512;BME280;73446;0.000;0.000;2024-03-02T10:17:49;97491.13;;;20.48;33.88
83512;BME280;73446;0.000;0.000;2024-03-02T10:20:33;97493.00;;;20.47;34.10
83512;BME280;73446;0.000;0.000;2024-03-02T10:23:17;97487.06;;;20.50;34.11
83512;BME280;73446;0.000;0.000;2024-03-02T10:26:01;97485.97;;;20.51;34.36
83512;BME280;73446;0.000;0.000;2024-03-02T10:28:46;97483.00;;;20.53;34.57
83512;BME280;73446;0.000;0.000;2024-03-02T10:31:34;97476.88;;;20.52;34.66
83512;BME280;73446;0.000;0.000;2024-03-02T10:34:22;97477.97;;;20.51;34.61
83512;BME280;73446;0.000;0.000;2024-03-02T10:37:10;97477.97;;;20.51;34.53
83512;BME280;73446;0.000;0.000;2024-03-02T10:39:54;97476.69;;;20.49;34.31
83512;BME280;73446;0.000;0.000;2024-03-02T10:42:39;97477.31;;;20.46;34.86
83512;BME280;73446;0.000;0.000;2024-03-02T10:45:24;97472.75;;;20.46;34.70
83512;BME280;73446;0.000;0.000;2024-03-02T10:48:08;97475.44;;;20.46;34.55
83512;BME280;73446;0.000;0.000;2024-03-02T10:50:53;97468.53;;;20.45;34.48
83512;BME280;73446;0.000;0.000;2024-03-02T10:53:37;97461.16;;;20.42;34.31
83512;BME280;73446;0.000;0.000;2024-03-02T10:56:26;97465.09;;;20.45;34.25
83512;BME280;73446;0.000;0.000;2024-03-02T10:59:21;97460.69;;;20.49;34.64
83512;BME280;73446;0.000;0.000;2024-03-02T11:02:14;97455.84;;;20.51;34.78
83512;BME280;73446;0.000;0.000;2024-03-02T11:05:03;97455.22;;;20.54;34.62
83512;BME280;73446;0.000;0.000;2024-03-02T11:07:55;97442.66;;;20.54;34.86
83512;BME280;73446;0.000;0.000;2024-03-02T11:10:47;97447.53;;;20.52;35.19
83512;BME280;73446;0.000;0.000;2024-03-02T11:13:32;97442.50;;;20.51;36.13
83512;BME280;73446;0.000;0.000;2024-03-02T11:19:15;97444.09;;;20.60;39.39
83512;BME280;73446;0.000;0.000;2024-03-02T11:22:00;97425.56;;;20.64;38.99
83512;BME280;73446;0.000;0.000;2024-03-02T11:24:50;97431.06;;;20.68;38.80
83512;BME280;73446;0.000;0.000;2024-03-02T11:33:23;97425.13;;;20.71;38.44
83512;BME280;73446;0.000;0.000;2024-03-02T11:36:08;97422.44;;;20.71;38.34
83512;BME280;73446;0.000;0.000;2024-03-02T11:38:52;97421.34;;;20.72;38.35
83512;BME280;73446;0.000;0.000;2024-03-02T11:41:37;97410.38;;;20.73;37.77
83512;BME280;73446;0.000;0.000;2024-03-02T11:44:21;97413.34;;;20.72;37.37
83512;BME280;73446;0.000;0.000;2024-03-02T11:47:07;97406.13;;;20.72;37.06
83512;BME280;73446;0.000;0.000;2024-03-02T11:49:52;97403.75;;;20.71;36.71
83512;BME280;73446;0.000;0.000;2024-03-02T11:52:38;97401.22;;;20.66;36.65
83512;BME280;73446;0.000;0.000;2024-03-02T11:55:25;97394.97;;;20.62;36.63
83512;BME280;73446;0.000;0.000;2024-03-02T11:58:09;97390.72;;;20.60;36.29
83512;BME280;73446;0.000;0.000;2024-03-02T12:00:54;97386.47;;;20.59;35.90
83512;BME280;73446;0.000;0.000;2024-03-02T12:03:41;97381.94;;;20.60;36.07
83512;BME280;73446;0.000;0.000;2024-03-02T12:06:26;97378.94;;;20.62;36.42
83512;BME280;73446;0.000;0.000;2024-03-02T12:09:10;97379.41;;;20.64;36.25
83512;BME280;73446;0.000;0.000;2024-03-02T12:12:06;97370.78;;;20.67;36.59
83512;BME280;73446;0.000;0.000;2024-03-02T12:14:52;97369.22;;;20.66;36.58
83512;BME280;73446;0.000;0.000;2024-03-02T12:17:39;97365.78;;;20.74;36.80
83512;BME280;73446;0.000;0.000;2024-03-02T12:20:26;97370.94;;;20.70;36.71
83512;BME280;73446;0.000;0.000;2024-03-02T12:23:11;97366.69;;;20.69;36.69
83512;BME280;73446;0.000;0.000;2024-03-02T12:25:55;97375.50;;;20.70;36.59
83512;BME280;73446;0.000;0.000;2024-03-02T12:28:40;97367.00;;;20.68;36.19
83512;BME280;73446;0.000;0.000;2024-03-02T12:31:24;97367.00;;;20.68;36.13
83512;BME280;73446;0.000;0.000;2024-03-02T12:34:08;97364.34;;;20.68;36.32
83512;BME280;73446;0.000;0.000;2024-03-02T12:36:52;97362.47;;;20.68;36.25
83512;BME280;73446;0.000;0.000;2024-03-02T12:39:37;97356.34;;;20.68;36.34
83512;BME280;73446;0.000;0.000;2024-03-02T12:42:21;97355.56;;;20.67;36.44
83512;BME280;73446;0.000;0.000;2024-03-02T12:45:06;97346.75;;;20.67;36.35
83512;BME280;73446;0.000;0.000;2024-03-02T12:47:50;97357.44;;;20.67;36.37
83512;BME280;73446;0.000;0.000;2024-03-02T12:50:40;97350.22;;;20.67;36.41
83512;BME280;73446;0.000;0.000;2024-03-02T12:53:24;97346.75;;;20.67;36.28
83512;BME280;73446;0.000;0.000;2024-03-02T12:56:11;97341.88;;;20.69;36.60
83512;BME280;73446;0.000;0.000;2024-03-02T12:58:55;97345.34;;;20.69;36.50
83512;BME280;73446;0.000;0.000;2024-03-02T13:01:50;97325.88;;;20.69;36.25
83512;BME280;73446;0.000;0.000;2024-03-02T13:04:34;97322.72;;;20.67;35.95
83512;BME280;73446;0.000;0.000;2024-03-02T13:07:19;97327.13;;;20.63;36.00
83512;BME280;73446;0.000;0.000;2024-03-02T13:10:05;97318.00;;;20.64;35.68
83512;BME280;73446;0.000;0.000;2024-03-02T13:12:50;97316.91;;;20.65;35.69
83512;BME280;73446;0.000;0.000;2024-03-02T13:15:34;97320.06;;;20.67;37.67
83512;BME280;73446;0.000;0.000;2024-03-02T13:18:18;97312.69;;;20.64;37.76
83512;BME280;73446;0.000;0.000;2024-03-02T13:21:04;97314.56;;;20.54;35.95
83512;BME280;73446;0.000;0.000;2024-03-02T13:23:48;97319.59;;;20.56;35.32
83512;BME280;73446;0.000;0.000;2024-03-02T13:26:32;97303.88;;;20.54;34.53
83512;BME280;73446;0.000;0.000;2024-03-02T13:29:16;97300.13;;;20.55;34.30
83512;BME280;73446;0.000;0.000;2024-03-02T13:32:00;97298.56;;;20.54;34.29
83512;BME280;73446;0.000;0.000;2024-03-02T13:34:44;97296.81;;;20.50;33.87
83512;BME280;73446;0.000;0.000;2024-03-02T13:37:28;97305.59;;;20.50;33.59
83512;BME280;73446;0.000;0.000;2024-03-02T13:40:13;97298.69;;;20.49;33.68
83512;BME280;73446;0.000;0.000;2024-03-02T13:43:02;97299.78;;;20.48;33.83
83512;BME280;73446;0.000;0.000;2024-03-02T13:45:46;97292.44;;;20.45;33.25
83512;BME280;73446;0.000;0.000;2024-03-02T13:48:31;97300.44;;;20.45;33.15
83512;BME280;73446;0.000;0.000;2024-03-02T13:51:15;97288.19;;;20.44;33.79
83512;BME280;73446;0.000;0.000;2024-03-02T13:53:59;97291.16;;;20.43;33.82
83512;BME280;73446;0.000;0.000;2024-03-02T13:56:43;97299.19;;;20.43;33.14
83512;BME280;73446;0.000;0.000;2024-03-02T13:59:27;97293.66;;;20.39;33.70
83512;BME280;73446;0.000;0.000;2024-03-02T14:02:12;97294.75;;;20.38;33.19
83512;BME280;73446;0.000;0.000;2024-03-02T14:04:56;97284.22;;;20.33;32.69
83512;BME280;73446;0.000;0.000;2024-03-02T14:07:41;97284.50;;;20.32;32.43
83512;BME280;73446;0.000;0.000;2024-03-02T14:10:25;97282.72;;;20.01;31.92
83512;BME280;73446;0.000;0.000;2024-03-02T14:13:10;97279.56;;;19.90;32.45
83512;BME280;73446;0.000;0.000;2024-03-02T14:15:54;97281.31;;;20.04;32.15
83512;BME280;73446;0.000;0.000;2024-03-02T14:18:38;97281.69;;;20.11;32.14
83512;BME280;73446;0.000;0.000;2024-03-02T14:21:22;97270.69;;;20.12;32.19
83512;BME280;73446;0.000;0.000;2024-03-02T14:24:07;97265.81;;;20.14;32.26
83512;BME280;73446;0.000;0.000;2024-03-02T14:26:52;97267.69;;;20.14;32.42
83512;BME280;73446;0.000;0.000;2024-03-02T14:29:36;97261.44;;;20.10;32.40
83512;BME280;73446;0.000;0.000;2024-03-02T14:32:21;97265.19;;;20.09;32.23
83512;BME280;73446;0.000;0.000;2024-03-02T14:35:05;97256.09;;;20.10;32.53
83512;BME280;73446;0.000;0.000;2024-03-02T14:37:49;97262.06;;;20.07;32.21
83512;BME280;73446;0.000;0.000;2024-03-02T14:40:33;97254.66;;;20.04;32.34
83512;BME280;73446;0.000;0.000;2024-03-02T14:43:17;97255.75;;;20.03;33.11
83512;BME280;73446;0.000;0.000;2024-03-02T14:46:01;97256.06;;;20.01;32.14
83512;BME280;73446;0.000;0.000;2024-03-02T14:48:45;97253.41;;;20.01;32.19
83512;BME280;73446;0.000;0.000;2024-03-02T14:51:30;97241.78;;;19.97;32.40
83512;BME280;73446;0.000;0.000;2024-03-02T14:54:14;97244.78;;;19.96;32.32